sensor_id;sensor_type;location;lat;lon;timestamp;P1;durP1;ratioP1;P2;durP2;ratioP2
13868;SDS011;7004;48.206;16.402;2023-04-03T00:01:03;3.47;;;3.07;;
13868;SDS011;7004;48.206;16.402;2023-04-03T00:03:29;5.03;;;3.67;;
13868;SDS011;7004;48.206;16.402;2023-04-03T00:05:56;4.03;;;3.33;;
13868;SDS011;7004;48.206;16.402;2023-04-03T00:08:22;5.20;;;3.27;;
13868;SDS011;7004;48.206;16.402;2023-04-03T00:10:48;3.70;;;3.10;;
13868;SDS011;7004;48.206;16.402;2023-04-03T00:13:14;5.07;;;3.47;;
13868;SDS011;7004;48.206;16.402;2023-04-03T00:15:41;3.53;;;3.23;;
13868;SDS011;7004;48.206;16.402;2023-04-03T00:18:07;4.97;;;3.23;;
13868;SDS011;7004;48.206;16.402;2023-04-03T00:20:34;4.87;;;3.30;;
13868;SDS011;7004;48.206;16.402;2023-04-03T00:23:01;4.03;;;3.20;;
13868;SDS011;7004;48.206;16.402;2023-04-03T00:25:28;3.53;;;3.07;;
13868;SDS011;7004;48.206;16.402;2023-04-03T00:27:54;5.70;;;3.37;;
13868;SDS011;7004;48.206;16.402;2023-04-03T00:30:20;3.97;;;3.10;;
13868;SDS011;7004;48.206;16.402;2023-04-03T00:32:48;4.27;;;3.30;;
13868;SDS011;7004;48.206;16.402;2023-04-03T00:35:16;4.67;;;3.17;;
13868;SDS011;7004;48.206;16.402;2023-04-03T00:37:43;5.53;;;3.40;;
13868;SDS011;7004;48.206;16.402;2023-04-03T00:40:11;4.93;;;3.27;;
13868;SDS011;7004;48.206;16.402;2023-04-03T00:42:40;3.50;;;3.00;;
13868;SDS011;7004;48.206;16.402;2023-04-03T00:47:43;3.83;;;3.27;;
13868;SDS011;7004;48.206;16.402;2023-04-03T00:50:10;4.53;;;3.40;;
13868;SDS011;7004;48.206;16.402;2023-04-03T00:52:36;4.13;;;3.60;;
13868;SDS011;7004;48.206;16.402;2023-04-03T00:55:05;5.23;;;3.63;;
13868;SDS011;7004;48.206;16.402;2023-04-03T00:57:34;4.30;;;2.70;;
13868;SDS011;7004;48.206;16.402;2023-04-03T01:00:03;3.90;;;3.37;;
13868;SDS011;7004;48.206;16.402;2023-04-03T01:02:34;4.17;;;3.23;;
13868;SDS011;7004;48.206;16.402;2023-04-03T01:05:01;3.57;;;3.20;;
13868;SDS011;7004;48.206;16.402;2023-04-03T01:07:31;4.10;;;3.40;;
13868;SDS011;7004;48.206;16.402;2023-04-03T01:10:00;3.73;;;2.80;;
13868;SDS011;7004;48.206;16.402;2023-04-03T01:12:36;4.53;;;3.07;;
13868;SDS011;7004;48.206;16.402;2023-04-03T01:15:12;4.60;;;3.23;;
13868;SDS011;7004;48.206;16.402;2023-04-03T01:17:46;4.87;;;3.50;;
13868;SDS011;7004;48.206;16.402;2023-04-03T01:25:39;4.13;;;3.47;;
13868;SDS011;7004;48.206;16.402;2023-04-03T01:28:22;3.87;;;3.23;;
13868;SDS011;7004;48.206;16.402;2023-04-03T01:34:12;3.50;;;3.03;;
13868;SDS011;7004;48.206;16.402;2023-04-03T01:36:39;4.27;;;3.20;;
13868;SDS011;7004;48.206;16.402;2023-04-03T01:39:05;4.83;;;3.60;;
13868;SDS011;7004;48.206;16.402;2023-04-03T01:41:31;4.53;;;3.40;;
13868;SDS011;7004;48.206;16.402;2023-04-03T01:43:57;4.37;;;3.60;;
13868;SDS011;7004;48.206;16.402;2023-04-03T01:46:23;4.00;;;3.60;;
13868;SDS011;7004;48.206;16.402;2023-04-03T01:48:50;4.47;;;3.40;;
13868;SDS011;7004;48.206;16.402;2023-04-03T01:51:17;4.17;;;3.40;;
13868;SDS011;7004;48.206;16.402;2023-04-03T01:53:43;6.17;;;3.30;;
13868;SDS011;7004;48.206;16.402;2023-04-03T01:56:09;3.20;;;2.87;;
13868;SDS011;7004;48.206;16.402;2023-04-03T01:58:37;5.87;;;3.37;;
13868;SDS011;7004;48.206;16.402;2023-04-03T02:01:04;3.20;;;2.90;;
13868;SDS011;7004;48.206;16.402;2023-04-03T02:03:31;3.60;;;3.13;;
13868;SDS011;7004;48.206;16.402;2023-04-03T02:05:57;3.47;;;3.07;;
13868;SDS011;7004;48.206;16.402;2023-04-03T02:08:24;4.87;;;3.17;;
13868;SDS011;7004;48.206;16.402;2023-04-03T02:10:51;3.63;;;3.00;;
13868;SDS011;7004;48.206;16.402;2023-04-03T02:13:17;3.73;;;3.30;;
13868;SDS011;7004;48.206;16.402;2023-04-03T02:15:44;3.73;;;3.33;;
13868;SDS011;7004;48.206;16.402;2023-04-03T02:18:11;3.83;;;3.40;;
13868;SDS011;7004;48.206;16.402;2023-04-03T02:20:38;3.63;;;3.30;;
13868;SDS011;7004;48.206;16.402;2023-04-03T02:23:05;3.30;;;2.80;;
13868;SDS011;7004;48.206;16.402;2023-04-03T02:25:32;4.10;;;3.53;;
13868;SDS011;7004;48.206;16.402;2023-04-03T02:27:59;3.73;;;3.30;;
13868;SDS011;7004;48.206;16.402;2023-04-03T02:30:26;4.47;;;3.23;;
13868;SDS011;7004;48.206;16.402;2023-04-03T02:32:52;4.80;;;3.37;;
13868;SDS011;7004;48.206;16.402;2023-04-03T02:35:19;3.93;;;3.33;;
13868;SDS011;7004;48.206;16.402;2023-04-03T02:37:46;4.20;;;3.77;;
13868;SDS011;7004;48.206;16.402;2023-04-03T02:40:12;3.97;;;3.43;;
13868;SDS011;7004;48.206;16.402;2023-04-03T02:42:38;4.77;;;3.43;;
13868;SDS011;7004;48.206;16.402;2023-04-03T02:45:05;4.87;;;3.77;;
13868;SDS011;7004;48.206;16.402;2023-04-03T02:47:31;4.77;;;3.97;;
13868;SDS011;7004;48.206;16.402;2023-04-03T02:49:57;4.57;;;3.40;;
13868;SDS011;7004;48.206;16.402;2023-04-03T02:52:23;4.83;;;4.10;;
13868;SDS011;7004;48.206;16.402;2023-04-03T02:54:50;6.20;;;3.90;;
13868;SDS011;7004;48.206;16.402;2023-04-03T02:57:16;7.10;;;3.97;;
13868;SDS011;7004;48.206;16.402;2023-04-03T02:59:42;4.97;;;3.80;;
13868;SDS011;7004;48.206;16.402;2023-04-03T03:02:09;6.00;;;4.17;;
13868;SDS011;7004;48.206;16.402;2023-04-03T03:04:36;5.37;;;4.33;;
13868;SDS011;7004;48.206;16.402;2023-04-03T03:07:02;5.13;;;3.90;;
13868;SDS011;7004;48.206;16.402;2023-04-03T03:09:28;4.50;;;4.10;;
13868;SDS011;7004;48.206;16.402;2023-04-03T03:11:55;5.30;;;4.00;;
13868;SDS011;7004;48.206;16.402;2023-04-03T03:14:22;6.07;;;3.60;;
13868;SDS011;7004;48.206;16.402;2023-04-03T03:16:49;5.53;;;3.60;;
13868;SDS011;7004;48.206;16.402;2023-04-03T03:19:15;4.30;;;3.90;;
13868;SDS011;7004;48.206;16.402;2023-04-03T03:21:41;3.63;;;3.30;;
13868;SDS011;7004;48.206;16.402;2023-04-03T03:24:07;5.97;;;3.93;;
13868;SDS011;7004;48.206;16.402;2023-04-03T03:26:34;4.27;;;3.57;;
13868;SDS011;7004;48.206;16.402;2023-04-03T03:29:00;5.10;;;3.47;;
13868;SDS011;7004;48.206;16.402;2023-04-03T03:31:27;3.70;;;3.30;;
13868;SDS011;7004;48.206;16.402;2023-04-03T03:33:53;3.73;;;3.20;;
13868;SDS011;7004;48.206;16.402;2023-04-03T03:36:19;3.77;;;3.37;;
13868;SDS011;7004;48.206;16.402;2023-04-03T03:38:45;3.53;;;3.07;;
13868;SDS011;7004;48.206;16.402;2023-04-03T03:41:11;4.30;;;3.00;;
13868;SDS011;7004;48.206;16.402;2023-04-03T03:43:37;3.77;;;3.17;;
13868;SDS011;7004;48.206;16.402;2023-04-03T03:46:04;3.27;;;2.97;;
13868;SDS011;7004;48.206;16.402;2023-04-03T03:48:30;3.20;;;2.90;;
13868;SDS011;7004;48.206;16.402;2023-04-03T03:50:56;5.23;;;3.43;;
13868;SDS011;7004;48.206;16.402;2023-04-03T03:53:22;4.57;;;3.27;;
13868;SDS011;7004;48.206;16.402;2023-04-03T03:55:48;3.87;;;3.30;;
13868;SDS011;7004;48.206;16.402;2023-04-03T03:58:14;4.27;;;3.07;;
13868;SDS011;7004;48.206;16.402;2023-04-03T04:00:40;3.97;;;3.00;;
13868;SDS011;7004;48.206;16.402;2023-04-03T04:03:09;3.23;;;2.60;;
13868;SDS011;7004;48.206;16.402;2023-04-03T04:05:35;3.67;;;3.20;;
13868;SDS011;7004;48.206;16.402;2023-04-03T04:08:01;3.47;;;2.90;;
13868;SDS011;7004;48.206;16.402;2023-04-03T04:10:27;3.70;;;3.03;;
13868;SDS011;7004;48.206;16.402;2023-04-03T04:12:54;3.73;;;3.07;;
13868;SDS011;7004;48.206;16.402;2023-04-03T04:15:20;3.83;;;3.40;;
13868;SDS011;7004;48.206;16.402;2023-04-03T04:17:47;3.70;;;2.97;;
13868;SDS011;7004;48.206;16.402;2023-04-03T04:20:13;4.67;;;3.50;;
13868;SDS011;7004;48.206;16.402;2023-04-03T04:22:40;4.37;;;3.17;;
13868;SDS011;7004;48.206;16.402;2023-04-03T04:25:06;4.57;;;3.07;;
13868;SDS011;7004;48.206;16.402;2023-04-03T04:27:32;3.73;;;3.13;;
13868;SDS011;7004;48.206;16.402;2023-04-03T04:29:58;3.50;;;3.20;;
13868;SDS011;7004;48.206;16.402;2023-04-03T04:32:25;4.53;;;3.60;;
13868;SDS011;7004;48.206;16.402;2023-04-03T04:34:51;3.87;;;3.47;;
13868;SDS011;7004;48.206;16.402;2023-04-03T04:37:17;3.80;;;3.30;;
13868;SDS011;7004;48.206;16.402;2023-04-03T04:39:43;4.37;;;3.57;;
13868;SDS011;7004;48.206;16.402;2023-04-03T04:42:09;4.70;;;4.00;;
13868;SDS011;7004;48.206;16.402;2023-04-03T04:44:40;5.80;;;3.47;;
13868;SDS011;7004;48.206;16.402;2023-04-03T04:47:06;4.13;;;3.57;;
13868;SDS011;7004;48.206;16.402;2023-04-03T04:49:33;4.97;;;3.47;;
13868;SDS011;7004;48.206;16.402;2023-04-03T04:51:59;4.17;;;3.50;;
13868;SDS011;7004;48.206;16.402;2023-04-03T04:54:25;5.30;;;3.80;;
13868;SDS011;7004;48.206;16.402;2023-04-03T04:56:51;3.80;;;3.37;;
13868;SDS011;7004;48.206;16.402;2023-04-03T04:59:18;4.20;;;3.80;;
13868;SDS011;7004;48.206;16.402;2023-04-03T05:01:44;4.20;;;3.77;;
13868;SDS011;7004;48.206;16.402;2023-04-03T05:04:10;7.77;;;3.83;;
13868;SDS011;7004;48.206;16.402;2023-04-03T05:06:38;4.97;;;3.53;;
13868;SDS011;7004;48.206;16.402;2023-04-03T05:09:04;3.80;;;3.43;;
13868;SDS011;7004;48.206;16.402;2023-04-03T05:11:30;4.20;;;3.60;;
13868;SDS011;7004;48.206;16.402;2023-04-03T05:13:56;4.83;;;3.20;;
13868;SDS011;7004;48.206;16.402;2023-04-03T05:16:22;3.90;;;3.20;;
13868;SDS011;7004;48.206;16.402;2023-04-03T05:18:49;4.13;;;3.40;;
13868;SDS011;7004;48.206;16.402;2023-04-03T05:21:15;4.07;;;3.30;;
13868;SDS011;7004;48.206;16.402;2023-04-03T05:23:43;6.50;;;3.77;;
13868;SDS011;7004;48.206;16.402;2023-04-03T05:26:09;6.83;;;3.77;;
13868;SDS011;7004;48.206;16.402;2023-04-03T05:28:36;4.43;;;3.83;;
13868;SDS011;7004;48.206;16.402;2023-04-03T05:31:02;4.97;;;3.90;;
13868;SDS011;7004;48.206;16.402;2023-04-03T05:33:28;7.20;;;3.90;;
13868;SDS011;7004;48.206;16.402;2023-04-03T05:35:54;5.57;;;3.80;;
13868;SDS011;7004;48.206;16.402;2023-04-03T05:38:20;4.60;;;3.77;;
13868;SDS011;7004;48.206;16.402;2023-04-03T05:40:47;5.93;;;3.80;;
13868;SDS011;7004;48.206;16.402;2023-04-03T05:43:13;6.03;;;3.87;;
13868;SDS011;7004;48.206;16.402;2023-04-03T05:45:39;5.70;;;3.50;;
13868;SDS011;7004;48.206;16.402;2023-04-03T05:48:05;5.27;;;4.00;;
13868;SDS011;7004;48.206;16.402;2023-04-03T05:50:31;4.57;;;3.93;;
13868;SDS011;7004;48.206;16.402;2023-04-03T05:52:58;8.43;;;3.50;;
13868;SDS011;7004;48.206;16.402;2023-04-03T05:55:26;6.07;;;3.47;;
13868;SDS011;7004;48.206;16.402;2023-04-03T05:57:52;5.63;;;3.40;;
13868;SDS011;7004;48.206;16.402;2023-04-03T06:00:18;4.60;;;3.47;;
13868;SDS011;7004;48.206;16.402;2023-04-03T06:02:44;5.33;;;4.00;;
13868;SDS011;7004;48.206;16.402;2023-04-03T06:05:11;4.87;;;3.83;;
13868;SDS011;7004;48.206;16.402;2023-04-03T06:07:38;4.67;;;3.23;;
13868;SDS011;7004;48.206;16.402;2023-04-03T06:10:04;4.70;;;3.70;;
13868;SDS011;7004;48.206;16.402;2023-04-03T06:12:32;5.27;;;3.53;;
13868;SDS011;7004;48.206;16.402;2023-04-03T06:14:58;4.97;;;3.50;;
13868;SDS011;7004;48.206;16.402;2023-04-03T06:17:24;4.20;;;3.40;;
13868;SDS011;7004;48.206;16.402;2023-04-03T06:19:52;5.27;;;3.50;;
13868;SDS011;7004;48.206;16.402;2023-04-03T06:22:18;5.97;;;3.60;;
13868;SDS011;7004;48.206;16.402;2023-04-03T06:24:45;9.43;;;3.80;;
13868;SDS011;7004;48.206;16.402;2023-04-03T06:27:11;6.47;;;4.13;;
13868;SDS011;7004;48.206;16.402;2023-04-03T06:29:38;4.33;;;3.43;;
13868;SDS011;7004;48.206;16.402;2023-04-03T06:32:04;5.70;;;3.60;;
13868;SDS011;7004;48.206;16.402;2023-04-03T06:34:30;3.93;;;3.43;;
13868;SDS011;7004;48.206;16.402;2023-04-03T06:36:56;11.23;;;3.97;;
13868;SDS011;7004;48.206;16.402;2023-04-03T06:39:23;8.13;;;3.73;;
13868;SDS011;7004;48.206;16.402;2023-04-03T06:41:49;6.93;;;3.90;;
13868;SDS011;7004;48.206;16.402;2023-04-03T06:44:16;7.97;;;4.03;;
13868;SDS011;7004;48.206;16.402;2023-04-03T06:46:43;4.33;;;3.30;;
13868;SDS011;7004;48.206;16.402;2023-04-03T06:49:11;6.03;;;4.40;;
13868;SDS011;7004;48.206;16.402;2023-04-03T06:51:39;6.80;;;4.37;;
13868;SDS011;7004;48.206;16.402;2023-04-03T06:54:05;9.73;;;4.03;;
13868;SDS011;7004;48.206;16.402;2023-04-03T06:56:33;6.93;;;3.90;;
13868;SDS011;7004;48.206;16.402;2023-04-03T06:58:59;6.67;;;3.50;;
13868;SDS011;7004;48.206;16.402;2023-04-03T07:01:26;4.47;;;3.73;;
13868;SDS011;7004;48.206;16.402;2023-04-03T07:03:55;4.57;;;3.67;;
13868;SDS011;7004;48.206;16.402;2023-04-03T07:06:22;5.67;;;3.60;;
13868;SDS011;7004;48.206;16.402;2023-04-03T07:08:48;6.77;;;3.67;;
13868;SDS011;7004;48.206;16.402;2023-04-03T07:11:14;3.97;;;3.50;;
13868;SDS011;7004;48.206;16.402;2023-04-03T07:13:42;5.70;;;3.80;;
13868;SDS011;7004;48.206;16.402;2023-04-03T07:16:08;6.47;;;3.87;;
13868;SDS011;7004;48.206;16.402;2023-04-03T07:18:35;6.73;;;3.90;;
13868;SDS011;7004;48.206;16.402;2023-04-03T07:21:02;5.57;;;3.93;;
13868;SDS011;7004;48.206;16.402;2023-04-03T07:23:29;6.50;;;4.40;;
13868;SDS011;7004;48.206;16.402;2023-04-03T07:25:56;7.63;;;4.00;;
13868;SDS011;7004;48.206;16.402;2023-04-03T07:28:22;5.57;;;3.83;;
13868;SDS011;7004;48.206;16.402;2023-04-03T07:30:50;5.17;;;3.70;;
13868;SDS011;7004;48.206;16.402;2023-04-03T07:33:33;9.97;;;4.43;;
13868;SDS011;7004;48.206;16.402;2023-04-03T07:36:01;8.50;;;4.23;;
13868;SDS011;7004;48.206;16.402;2023-04-03T07:38:27;5.93;;;4.20;;
13868;SDS011;7004;48.206;16.402;2023-04-03T07:40:54;6.23;;;3.50;;
13868;SDS011;7004;48.206;16.402;2023-04-03T07:43:22;5.83;;;4.27;;
13868;SDS011;7004;48.206;16.402;2023-04-03T07:45:50;7.43;;;3.77;;
13868;SDS011;7004;48.206;16.402;2023-04-03T07:48:19;5.87;;;3.47;;
13868;SDS011;7004;48.206;16.402;2023-04-03T07:50:48;7.13;;;3.90;;
13868;SDS011;7004;48.206;16.402;2023-04-03T07:53:14;9.93;;;4.13;;
13868;SDS011;7004;48.206;16.402;2023-04-03T07:55:41;5.10;;;3.60;;
13868;SDS011;7004;48.206;16.402;2023-04-03T07:58:11;4.93;;;3.80;;
13868;SDS011;7004;48.206;16.402;2023-04-03T08:00:40;5.37;;;4.20;;
13868;SDS011;7004;48.206;16.402;2023-04-03T08:03:09;7.30;;;3.87;;
13868;SDS011;7004;48.206;16.402;2023-04-03T08:05:43;7.23;;;3.73;;
13868;SDS011;7004;48.206;16.402;2023-04-03T08:08:12;4.97;;;3.73;;
13868;SDS011;7004;48.206;16.402;2023-04-03T08:10:52;5.27;;;3.90;;
13868;SDS011;7004;48.206;16.402;2023-04-03T08:13:20;5.53;;;3.77;;
13868;SDS011;7004;48.206;16.402;2023-04-03T08:15:46;6.77;;;4.10;;
13868;SDS011;7004;48.206;16.402;2023-04-03T08:18:13;5.10;;;3.83;;
13868;SDS011;7004;48.206;16.402;2023-04-03T08:20:41;8.40;;;4.20;;
13868;SDS011;7004;48.206;16.402;2023-04-03T08:23:08;5.17;;;4.30;;
13868;SDS011;7004;48.206;16.402;2023-04-03T08:25:39;7.90;;;3.97;;
13868;SDS011;7004;48.206;16.402;2023-04-03T08:28:06;6.07;;;4.10;;
13868;SDS011;7004;48.206;16.402;2023-04-03T08:30:34;4.57;;;4.07;;
13868;SDS011;7004;48.206;16.402;2023-04-03T08:33:01;4.50;;;3.70;;
13868;SDS011;7004;48.206;16.402;2023-04-03T08:35:28;6.53;;;4.20;;
13868;SDS011;7004;48.206;16.402;2023-04-03T08:37:54;7.63;;;4.17;;
13868;SDS011;7004;48.206;16.402;2023-04-03T08:40:21;7.07;;;4.50;;
13868;SDS011;7004;48.206;16.402;2023-04-03T08:42:59;5.17;;;3.93;;
13868;SDS011;7004;48.206;16.402;2023-04-03T08:45:56;6.37;;;4.13;;
13868;SDS011;7004;48.206;16.402;2023-04-03T08:48:31;7.03;;;4.50;;
13868;SDS011;7004;48.206;16.402;2023-04-03T08:51:08;6.83;;;4.17;;
13868;SDS011;7004;48.206;16.402;2023-04-03T08:54:04;4.87;;;3.60;;
13868;SDS011;7004;48.206;16.402;2023-04-03T08:56:35;4.67;;;3.57;;
13868;SDS011;7004;48.206;16.402;2023-04-03T08:59:04;9.23;;;4.00;;
13868;SDS011;7004;48.206;16.402;2023-04-03T09:01:38;8.67;;;4.17;;
13868;SDS011;7004;48.206;16.402;2023-04-03T09:04:13;7.10;;;4.50;;
13868;SDS011;7004;48.206;16.402;2023-04-03T09:06:45;5.83;;;3.70;;
13868;SDS011;7004;48.206;16.402;2023-04-03T09:09:31;5.10;;;3.77;;
13868;SDS011;7004;48.206;16.402;2023-04-03T09:12:12;6.70;;;3.70;;
13868;SDS011;7004;48.206;16.402;2023-04-03T09:23:30;6.33;;;3.83;;
13868;SDS011;7004;48.206;16.402;2023-04-03T09:29:02;6.00;;;4.10;;
13868;SDS011;7004;48.206;16.402;2023-04-03T09:31:37;7.00;;;3.90;;
13868;SDS011;7004;48.206;16.402;2023-04-03T09:34:30;4.60;;;3.47;;
13868;SDS011;7004;48.206;16.402;2023-04-03T09:37:01;4.20;;;3.47;;
13868;SDS011;7004;48.206;16.402;2023-04-03T09:39:31;3.27;;;2.80;;
13868;SDS011;7004;48.206;16.402;2023-04-03T09:42:16;7.97;;;3.70;;
13868;SDS011;7004;48.206;16.402;2023-04-03T09:44:55;5.73;;;4.30;;
13868;SDS011;7004;48.206;16.402;2023-04-03T09:47:26;4.17;;;3.50;;
13868;SDS011;7004;48.206;16.402;2023-04-03T09:52:41;4.03;;;3.10;;
13868;SDS011;7004;48.206;16.402;2023-04-03T09:55:25;6.27;;;3.47;;
13868;SDS011;7004;48.206;16.402;2023-04-03T09:57:58;4.27;;;2.97;;
13868;SDS011;7004;48.206;16.402;2023-04-03T10:00:34;4.43;;;2.93;;
13868;SDS011;7004;48.206;16.402;2023-04-03T10:03:04;3.67;;;2.90;;
13868;SDS011;7004;48.206;16.402;2023-04-03T10:05:48;4.33;;;3.17;;
13868;SDS011;7004;48.206;16.402;2023-04-03T10:08:36;4.17;;;3.10;;
13868;SDS011;7004;48.206;16.402;2023-04-03T10:11:07;3.50;;;3.20;;
13868;SDS011;7004;48.206;16.402;2023-04-03T10:13:54;5.23;;;3.47;;
13868;SDS011;7004;48.206;16.402;2023-04-03T10:16:27;4.13;;;3.30;;
13868;SDS011;7004;48.206;16.402;2023-04-03T10:19:21;4.53;;;3.30;;
13868;SDS011;7004;48.206;16.402;2023-04-03T10:22:16;4.43;;;3.43;;
13868;SDS011;7004;48.206;16.402;2023-04-03T10:27:59;3.90;;;3.00;;
13868;SDS011;7004;48.206;16.402;2023-04-03T10:42:52;7.63;;;3.50;;
13868;SDS011;7004;48.206;16.402;2023-04-03T10:45:57;5.37;;;3.10;;
13868;SDS011;7004;48.206;16.402;2023-04-03T10:51:33;7.23;;;3.70;;
13868;SDS011;7004;48.206;16.402;2023-04-03T10:57:19;5.90;;;3.13;;
13868;SDS011;7004;48.206;16.402;2023-04-03T10:59:51;7.53;;;3.37;;
13868;SDS011;7004;48.206;16.402;2023-04-03T11:05:02;3.93;;;2.83;;
13868;SDS011;7004;48.206;16.402;2023-04-03T11:07:45;4.83;;;3.23;;
13868;SDS011;7004;48.206;16.402;2023-04-03T11:10:31;7.20;;;3.20;;
13868;SDS011;7004;48.206;16.402;2023-04-03T11:15:56;4.50;;;3.33;;
13868;SDS011;7004;48.206;16.402;2023-04-03T11:18:28;4.50;;;3.50;;
13868;SDS011;7004;48.206;16.402;2023-04-03T11:21:23;8.30;;;3.60;;
13868;SDS011;7004;48.206;16.402;2023-04-03T11:24:31;6.30;;;3.43;;
13868;SDS011;7004;48.206;16.402;2023-04-03T11:26:59;4.90;;;3.10;;
13868;SDS011;7004;48.206;16.402;2023-04-03T11:29:34;6.57;;;3.40;;
13868;SDS011;7004;48.206;16.402;2023-04-03T11:35:17;6.33;;;3.27;;
13868;SDS011;7004;48.206;16.402;2023-04-03T11:37:45;6.60;;;3.67;;
13868;SDS011;7004;48.206;16.402;2023-04-03T11:42:47;3.40;;;3.10;;
13868;SDS011;7004;48.206;16.402;2023-04-03T11:47:54;4.20;;;3.03;;
13868;SDS011;7004;48.206;16.402;2023-04-03T11:50:51;3.63;;;3.00;;
13868;SDS011;7004;48.206;16.402;2023-04-03T11:55:57;7.63;;;3.33;;
13868;SDS011;7004;48.206;16.402;2023-04-03T11:58:27;5.50;;;3.37;;
13868;SDS011;7004;48.206;16.402;2023-04-03T12:01:01;4.30;;;3.00;;
13868;SDS011;7004;48.206;16.402;2023-04-03T12:04:06;4.40;;;3.10;;
13868;SDS011;7004;48.206;16.402;2023-04-03T12:12:01;3.60;;;3.20;;
13868;SDS011;7004;48.206;16.402;2023-04-03T12:14:56;6.40;;;3.40;;
13868;SDS011;7004;48.206;16.402;2023-04-03T12:29:23;7.03;;;3.50;;
13868;SDS011;7004;48.206;16.402;2023-04-03T12:32:04;5.60;;;3.40;;
13868;SDS011;7004;48.206;16.402;2023-04-03T12:47:43;4.37;;;3.07;;
13868;SDS011;7004;48.206;16.402;2023-04-03T12:50:16;4.93;;;3.10;;
13868;SDS011;7004;48.206;16.402;2023-04-03T12:52:44;5.37;;;3.30;;
13868;SDS011;7004;48.206;16.402;2023-04-03T12:55:16;3.33;;;2.70;;
13868;SDS011;7004;48.206;16.402;2023-04-03T12:57:47;4.07;;;2.97;;
13868;SDS011;7004;48.206;16.402;2023-04-03T13:00:20;5.20;;;3.30;;
13868;SDS011;7004;48.206;16.402;2023-04-03T13:02:58;3.57;;;3.10;;
13868;SDS011;7004;48.206;16.402;2023-04-03T13:05:29;6.27;;;3.50;;
13868;SDS011;7004;48.206;16.402;2023-04-03T13:08:04;4.83;;;3.30;;
13868;SDS011;7004;48.206;16.402;2023-04-03T13:10:47;4.77;;;3.37;;
13868;SDS011;7004;48.206;16.402;2023-04-03T13:13:21;4.90;;;3.27;;
13868;SDS011;7004;48.206;16.402;2023-04-03T13:15:48;4.37;;;3.23;;
13868;SDS011;7004;48.206;16.402;2023-04-03T13:21:18;4.90;;;3.13;;
13868;SDS011;7004;48.206;16.402;2023-04-03T13:23:52;5.00;;;2.90;;
13868;SDS011;7004;48.206;16.402;2023-04-03T13:26:27;4.60;;;2.90;;
13868;SDS011;7004;48.206;16.402;2023-04-03T13:29:14;3.37;;;2.67;;
13868;SDS011;7004;48.206;16.402;2023-04-03T13:32:00;11.37;;;3.00;;
13868;SDS011;7004;48.206;16.402;2023-04-03T13:34:32;4.07;;;3.00;;
13868;SDS011;7004;48.206;16.402;2023-04-03T13:37:11;4.20;;;3.27;;
13868;SDS011;7004;48.206;16.402;2023-04-03T13:42:38;4.20;;;3.03;;
13868;SDS011;7004;48.206;16.402;2023-04-03T13:45:11;6.17;;;3.30;;
13868;SDS011;7004;48.206;16.402;2023-04-03T13:47:54;3.70;;;2.80;;
13868;SDS011;7004;48.206;16.402;2023-04-03T13:50:54;5.77;;;3.23;;
13868;SDS011;7004;48.206;16.402;2023-04-03T13:53:29;4.80;;;3.00;;
13868;SDS011;7004;48.206;16.402;2023-04-03T13:55:58;4.13;;;2.70;;
13868;SDS011;7004;48.206;16.402;2023-04-03T13:58:52;3.40;;;2.60;;
13868;SDS011;7004;48.206;16.402;2023-04-03T14:01:47;4.37;;;2.67;;
13868;SDS011;7004;48.206;16.402;2023-04-03T14:04:20;4.20;;;2.93;;
13868;SDS011;7004;48.206;16.402;2023-04-03T14:06:50;4.23;;;2.50;;
13868;SDS011;7004;48.206;16.402;2023-04-03T14:09:18;3.77;;;3.00;;
13868;SDS011;7004;48.206;16.402;2023-04-03T14:11:47;4.60;;;2.63;;
13868;SDS011;7004;48.206;16.402;2023-04-03T14:14:29;3.33;;;2.80;;
13868;SDS011;7004;48.206;16.402;2023-04-03T14:17:00;4.10;;;2.60;;
13868;SDS011;7004;48.206;16.402;2023-04-03T14:19:35;6.33;;;3.43;;
13868;SDS011;7004;48.206;16.402;2023-04-03T14:22:07;3.20;;;2.73;;
13868;SDS011;7004;48.206;16.402;2023-04-03T14:24:40;7.07;;;3.33;;
13868;SDS011;7004;48.206;16.402;2023-04-03T14:27:11;3.10;;;2.73;;
13868;SDS011;7004;48.206;16.402;2023-04-03T14:29:47;6.90;;;2.73;;
13868;SDS011;7004;48.206;16.402;2023-04-03T14:32:16;4.33;;;3.00;;
13868;SDS011;7004;48.206;16.402;2023-04-03T14:34:44;5.90;;;3.13;;
13868;SDS011;7004;48.206;16.402;2023-04-03T14:37:16;4.93;;;3.10;;
13868;SDS011;7004;48.206;16.402;2023-04-03T14:39:50;4.33;;;3.00;;
13868;SDS011;7004;48.206;16.402;2023-04-03T14:42:20;4.33;;;2.80;;
13868;SDS011;7004;48.206;16.402;2023-04-03T14:44:56;6.57;;;2.77;;
13868;SDS011;7004;48.206;16.402;2023-04-03T14:47:25;5.30;;;2.97;;
13868;SDS011;7004;48.206;16.402;2023-04-03T14:49:54;6.30;;;3.40;;
13868;SDS011;7004;48.206;16.402;2023-04-03T14:52:23;8.53;;;5.50;;
13868;SDS011;7004;48.206;16.402;2023-04-03T14:54:55;5.07;;;4.10;;
13868;SDS011;7004;48.206;16.402;2023-04-03T14:57:23;4.40;;;2.90;;
13868;SDS011;7004;48.206;16.402;2023-04-03T14:59:52;3.80;;;3.03;;
13868;SDS011;7004;48.206;16.402;2023-04-03T15:04:50;6.13;;;2.87;;
13868;SDS011;7004;48.206;16.402;2023-04-03T15:07:16;5.27;;;2.90;;
13868;SDS011;7004;48.206;16.402;2023-04-03T15:09:43;4.93;;;2.57;;
13868;SDS011;7004;48.206;16.402;2023-04-03T15:12:10;5.83;;;3.03;;
13868;SDS011;7004;48.206;16.402;2023-04-03T15:14:36;6.67;;;2.83;;
13868;SDS011;7004;48.206;16.402;2023-04-03T15:17:03;4.80;;;2.70;;
13868;SDS011;7004;48.206;16.402;2023-04-03T15:19:32;5.07;;;3.10;;
13868;SDS011;7004;48.206;16.402;2023-04-03T15:22:03;4.17;;;2.67;;
13868;SDS011;7004;48.206;16.402;2023-04-03T15:24:29;4.23;;;2.73;;
13868;SDS011;7004;48.206;16.402;2023-04-03T15:26:55;4.67;;;3.07;;
13868;SDS011;7004;48.206;16.402;2023-04-03T15:29:22;3.60;;;2.60;;
13868;SDS011;7004;48.206;16.402;2023-04-03T15:31:48;4.77;;;3.20;;
13868;SDS011;7004;48.206;16.402;2023-04-03T15:34:18;4.47;;;3.10;;
13868;SDS011;7004;48.206;16.402;2023-04-03T15:36:44;4.17;;;2.70;;
13868;SDS011;7004;48.206;16.402;2023-04-03T15:39:10;6.93;;;2.70;;
13868;SDS011;7004;48.206;16.402;2023-04-03T15:41:36;4.97;;;3.60;;
13868;SDS011;7004;48.206;16.402;2023-04-03T15:44:02;4.13;;;2.50;;
13868;SDS011;7004;48.206;16.402;2023-04-03T15:46:29;6.37;;;3.40;;
13868;SDS011;7004;48.206;16.402;2023-04-03T15:48:55;3.60;;;3.30;;
13868;SDS011;7004;48.206;16.402;2023-04-03T15:51:22;4.27;;;3.17;;
13868;SDS011;7004;48.206;16.402;2023-04-03T15:53:48;4.47;;;2.80;;
13868;SDS011;7004;48.206;16.402;2023-04-03T15:56:14;4.47;;;2.80;;
13868;SDS011;7004;48.206;16.402;2023-04-03T15:58:41;4.03;;;2.33;;
13868;SDS011;7004;48.206;16.402;2023-04-03T16:01:08;3.90;;;2.90;;
13868;SDS011;7004;48.206;16.402;2023-04-03T16:03:36;6.53;;;2.60;;
13868;SDS011;7004;48.206;16.402;2023-04-03T16:06:09;5.30;;;2.80;;
13868;SDS011;7004;48.206;16.402;2023-04-03T16:08:35;6.27;;;2.40;;
13868;SDS011;7004;48.206;16.402;2023-04-03T16:11:02;4.47;;;3.20;;
13868;SDS011;7004;48.206;16.402;2023-04-03T16:13:29;3.20;;;2.77;;
13868;SDS011;7004;48.206;16.402;2023-04-03T16:15:55;3.77;;;2.83;;
13868;SDS011;7004;48.206;16.402;2023-04-03T16:18:22;5.17;;;3.40;;
13868;SDS011;7004;48.206;16.402;2023-04-03T16:20:48;4.40;;;2.90;;
13868;SDS011;7004;48.206;16.402;2023-04-03T16:23:14;4.53;;;3.00;;
13868;SDS011;7004;48.206;16.402;2023-04-03T16:25:41;3.50;;;2.53;;
13868;SDS011;7004;48.206;16.402;2023-04-03T16:28:14;5.80;;;2.87;;
13868;SDS011;7004;48.206;16.402;2023-04-03T16:30:43;3.67;;;2.67;;
13868;SDS011;7004;48.206;16.402;2023-04-03T16:33:12;5.03;;;2.60;;
13868;SDS011;7004;48.206;16.402;2023-04-03T16:35:39;4.33;;;3.20;;
13868;SDS011;7004;48.206;16.402;2023-04-03T16:38:07;5.77;;;3.10;;
13868;SDS011;7004;48.206;16.402;2023-04-03T16:40:33;5.63;;;3.00;;
13868;SDS011;7004;48.206;16.402;2023-04-03T16:43:00;3.83;;;2.93;;
13868;SDS011;7004;48.206;16.402;2023-04-03T16:45:27;5.60;;;3.00;;
13868;SDS011;7004;48.206;16.402;2023-04-03T16:47:54;4.77;;;2.67;;